createdAt,value
2019-06-07T00:00:33.527Z,1.62
2019-06-07T00:02:46.439Z,1.50
2019-06-07T00:05:20.013Z,1.80
2019-06-07T00:07:51.894Z,1.67
2019-06-07T00:10:35.805Z,1.80
2019-06-07T00:12:57.294Z,1.80
2019-06-07T00:15:29.432Z,1.80
2019-06-07T00:18:01.379Z,1.87
2019-06-07T00:20:33.363Z,1.80
2019-06-07T00:23:05.283Z,1.72
2019-06-07T00:25:37.265Z,1.80
2019-06-07T00:28:10.709Z,1.45
2019-06-07T00:30:51.599Z,1.77
2019-06-07T00:33:19.243Z,1.80
2019-06-07T00:35:49.829Z,1.50
2019-06-07T00:38:22.062Z,1.60
2019-06-07T00:40:55.392Z,1.60
2019-06-07T00:43:28.535Z,1.70
2019-06-07T00:46:00.680Z,1.60
2019-06-07T00:48:33.266Z,1.75
2019-06-07T00:51:06.447Z,1.65
2019-06-07T00:53:38.460Z,1.70
2019-06-07T00:56:11.401Z,1.80
2019-06-07T00:58:43.416Z,1.80
2019-06-07T01:01:17.574Z,1.98
2019-06-07T01:03:48.826Z,1.47
2019-06-07T01:06:22.941Z,1.50
2019-06-07T01:08:54.336Z,1.60
2019-06-07T01:11:26.338Z,1.40
2019-06-07T01:13:59.488Z,1.85
2019-06-07T01:16:55.595Z,1.67
2019-06-07T01:19:04.918Z,1.65
2019-06-07T01:21:36.821Z,1.70
2019-06-07T01:24:12.366Z,1.57
2019-06-07T01:26:42.703Z,2.20
2019-06-07T01:29:17.711Z,2.20
2019-06-07T01:31:48.208Z,2.00
2019-06-07T01:34:21.137Z,1.90
2019-06-07T01:36:53.807Z,2.30
2019-06-07T01:39:29.832Z,1.95
2019-06-07T01:41:59.477Z,2.00
2019-06-07T01:44:31.660Z,2.50
2019-06-07T01:47:03.662Z,1.83
2019-06-07T01:49:35.536Z,1.90
2019-06-07T01:52:07.572Z,1.80
2019-06-07T01:54:56.734Z,2.00
2019-06-07T01:57:31.593Z,2.30
2019-06-07T01:59:46.914Z,1.82
2019-06-07T02:02:20.105Z,2.10
2019-06-07T02:04:52.986Z,2.65
2019-06-07T02:07:28.083Z,2.52
2019-06-07T02:09:58.999Z,2.72
2019-06-07T02:12:40.810Z,3.33
2019-06-07T02:15:06.825Z,3.33
2019-06-07T02:17:39.190Z,2.85
2019-06-07T02:20:11.228Z,3.00
2019-06-07T02:22:43.271Z,3.37
2019-06-07T02:25:37.369Z,2.98
2019-06-07T02:27:48.840Z,3.30
2019-06-07T02:30:40.473Z,3.40
2019-06-07T02:32:55.143Z,4.50
2019-06-07T02:35:34.851Z,4.78
2019-06-07T02:38:01.094Z,5.05
2019-06-07T02:40:37.154Z,4.77
2019-06-07T02:43:06.802Z,4.60
2019-06-07T02:45:43.389Z,5.60
2019-06-07T02:48:12.847Z,6.17
2019-06-07T02:50:44.797Z,5.78
2019-06-07T02:53:16.707Z,5.10
2019-06-07T02:56:33.775Z,4.80
2019-06-07T02:58:22.252Z,5.15
2019-06-07T03:01:06.970Z,4.97
2019-06-07T03:03:30.040Z,5.10
2019-06-07T03:06:01.640Z,4.95
2019-06-07T03:08:36.610Z,5.08
2019-06-07T03:11:08.067Z,4.72
2019-06-07T03:13:41.178Z,4.50
2019-06-07T03:16:14.887Z,4.65
2019-06-07T03:19:07.298Z,4.50
2019-06-07T03:21:41.650Z,4.47
2019-06-07T03:24:13.940Z,4.33
2019-06-07T03:27:31.863Z,3.77
2019-06-07T03:29:19.342Z,4.12
2019-06-07T03:31:51.310Z,3.75
2019-06-07T03:34:23.142Z,4.15
2019-06-07T03:36:55.156Z,4.65
2019-06-07T03:39:28.449Z,4.65
2019-06-07T03:42:06.154Z,3.72
2019-06-07T03:44:37.811Z,4.90
2019-06-07T03:47:07.956Z,5.55
2019-06-07T03:49:42.579Z,5.30
2019-06-07T03:52:13.403Z,5.35
2019-06-07T03:54:45.516Z,5.25
2019-06-07T03:57:17.354Z,4.65
2019-06-07T03:59:49.204Z,4.80
2019-06-07T04:02:21.354Z,5.78
2019-06-07T04:04:53.384Z,6.80
2019-06-07T04:07:25.286Z,5.67
2019-06-07T04:09:57.292Z,5.03
2019-06-07T04:12:31.968Z,4.70
2019-06-07T04:15:02.803Z,4.42
2019-06-07T04:17:38.746Z,4.62
2019-06-07T04:20:08.949Z,5.28
2019-06-07T04:22:42.818Z,5.47
2019-06-07T04:25:16.007Z,6.53
2019-06-07T04:27:47.854Z,6.47
2019-06-07T04:30:36.834Z,7.28
2019-06-07T04:33:08.870Z,6.20
2019-06-07T04:35:43.537Z,5.80
2019-06-07T04:38:15.820Z,5.05
2019-06-07T04:40:48.037Z,5.08
2019-06-07T04:43:19.973Z,4.83
2019-06-07T04:45:52.009Z,6.55
2019-06-07T04:48:25.957Z,6.55
2019-06-07T04:50:57.938Z,6.20
2019-06-07T04:53:30.957Z,6.20
2019-06-07T04:56:03.375Z,5.85
2019-06-07T04:58:35.804Z,6.37
2019-06-07T05:01:26.238Z,7.37
2019-06-07T05:03:44.586Z,7.10
2019-06-07T05:06:16.742Z,6.60
2019-06-07T05:08:48.878Z,7.90
2019-06-07T05:11:20.823Z,7.50
2019-06-07T05:13:52.724Z,6.22
2019-06-07T05:16:24.626Z,6.05
2019-06-07T05:18:56.482Z,4.90
2019-06-07T05:21:49.142Z,5.80
2019-06-07T05:24:09.686Z,6.40
2019-06-07T05:26:38.507Z,5.70
2019-06-07T05:29:08.891Z,5.05
2019-06-07T05:31:44.946Z,4.85
2019-06-07T05:34:14.484Z,5.08
2019-06-07T05:37:10.117Z,3.90
2019-06-07T05:39:20.891Z,4.50
2019-06-07T05:41:53.341Z,4.60
2019-06-07T05:44:25.398Z,4.05
2019-06-07T05:46:57.277Z,3.42
2019-06-07T05:49:29.377Z,2.80
2019-06-07T05:52:01.208Z,2.22
2019-06-07T05:54:35.085Z,2.17
2019-06-07T05:57:06.726Z,2.20
2019-06-07T05:59:41.634Z,2.10
2019-06-07T06:02:22.133Z,2.40
2019-06-07T06:04:48.999Z,2.25
2019-06-07T06:07:20.247Z,2.35
2019-06-07T06:09:52.837Z,2.60
2019-06-07T06:12:34.571Z,2.50
2019-06-07T06:14:58.469Z,2.50
2019-06-07T06:17:30.386Z,2.40
2019-06-07T06:20:02.318Z,1.63
2019-06-07T06:22:37.381Z,2.08
2019-06-07T06:28:05.915Z,2.10
2019-06-07T06:30:18.349Z,1.72
2019-06-07T06:32:57.553Z,1.95
2019-06-07T06:35:23.837Z,1.85
2019-06-07T06:37:55.793Z,2.00
2019-06-07T06:40:28.705Z,2.02
2019-06-07T06:43:05.089Z,2.10
2019-06-07T06:45:37.705Z,1.80
2019-06-07T06:48:09.629Z,2.00
2019-06-07T06:50:44.388Z,1.60
2019-06-07T06:53:15.389Z,1.70
2019-06-07T06:55:49.311Z,2.10
2019-06-07T06:58:20.814Z,1.80
2019-06-07T07:01:06.058Z,3.35
2019-06-07T07:03:57.330Z,2.10
2019-06-07T07:06:25.981Z,1.80
2019-06-07T07:08:57.877Z,1.80
2019-06-07T07:11:30.156Z,1.90
2019-06-07T07:14:02.398Z,1.77
2019-06-07T07:16:35.929Z,1.80
2019-06-07T07:19:07.903Z,2.27
2019-06-07T07:21:42.060Z,1.60
2019-06-07T07:24:21.756Z,1.80
2019-06-07T07:26:50.500Z,1.20
2019-06-07T07:29:22.031Z,1.40
2019-06-07T07:31:56.399Z,1.45
2019-06-07T07:34:35.641Z,1.30
2019-06-07T07:37:03.007Z,1.00
2019-06-07T07:39:35.149Z,1.20
2019-06-07T07:42:20.376Z,1.30
2019-06-07T07:44:41.398Z,1.20
2019-06-07T07:47:18.291Z,1.57
2019-06-07T07:49:56.398Z,1.32
2019-06-07T07:52:26.021Z,1.35
2019-06-07T07:54:59.535Z,1.70
2019-06-07T07:57:32.659Z,1.75
2019-06-07T08:00:48.522Z,1.60
2019-06-07T08:02:40.024Z,1.70
2019-06-07T08:05:22.786Z,1.90
2019-06-07T08:07:56.485Z,2.30
2019-06-07T08:10:27.186Z,1.82
2019-06-07T08:13:23.374Z,1.40
2019-06-07T08:15:41.173Z,1.50
2019-06-07T08:18:17.095Z,1.67
2019-06-07T08:21:08.821Z,1.12
2019-06-07T08:23:29.332Z,1.10
2019-06-07T08:26:02.467Z,1.62
2019-06-07T08:28:34.417Z,1.55
2019-06-07T08:31:10.480Z,1.05
2019-06-07T08:33:42.653Z,1.25
2019-06-07T08:36:40.369Z,1.27
2019-06-07T08:39:06.823Z,1.10
2019-06-07T08:41:35.543Z,1.10
2019-06-07T08:44:23.422Z,1.32
2019-06-07T08:46:55.567Z,1.32
2019-06-07T08:49:23.110Z,1.80
2019-06-07T08:52:05.676Z,1.40
2019-06-07T08:54:32.894Z,1.07
2019-06-07T08:57:19.977Z,1.30
2019-06-07T08:59:38.915Z,1.20
2019-06-07T09:02:23.283Z,1.00
2019-06-07T09:04:46.764Z,1.10
2019-06-07T09:07:19.921Z,1.00
2019-06-07T09:10:03.456Z,0.93
2019-06-07T09:12:32.775Z,1.60
2019-06-07T09:15:22.644Z,1.20
2019-06-07T09:18:34.804Z,1.10
2019-06-07T09:20:37.099Z,1.30
2019-06-07T09:23:15.493Z,1.50
2019-06-07T09:25:55.845Z,1.23
2019-06-07T09:28:18.722Z,1.17
2019-06-07T09:30:46.708Z,1.50
2019-06-07T09:33:19.635Z,1.55
2019-06-07T09:35:52.464Z,1.40
2019-06-07T09:38:26.510Z,1.60
2019-06-07T09:41:03.174Z,1.70
2019-06-07T09:46:12.811Z,1.32
2019-06-07T09:51:20.201Z,2.02
2019-06-07T09:53:53.024Z,2.52
2019-06-07T09:56:26.779Z,2.27
2019-06-07T09:59:13.143Z,2.75
2019-06-07T10:01:50.937Z,3.37
2019-06-07T10:04:31.607Z,3.60
2019-06-07T10:07:10.543Z,3.30
2019-06-07T10:10:11.815Z,3.12
2019-06-07T10:12:17.978Z,3.90
2019-06-07T10:14:54.471Z,3.05
2019-06-07T10:17:28.682Z,2.90
2019-06-07T10:20:09.899Z,3.80
2019-06-07T10:22:43.784Z,3.25
2019-06-07T10:25:17.274Z,3.52
2019-06-07T10:27:49.371Z,4.35
2019-06-07T10:30:23.815Z,3.05
2019-06-07T10:33:02.243Z,3.40
2019-06-07T10:35:33.638Z,2.85
2019-06-07T10:38:11.086Z,2.10
2019-06-07T10:41:12.084Z,2.80
2019-06-07T10:43:57.690Z,2.80
2019-06-07T10:46:37.015Z,2.60
2019-06-07T10:49:14.868Z,4.47
2019-06-07T10:51:49.194Z,3.53
2019-06-07T10:54:29.414Z,3.35
2019-06-07T10:57:00.592Z,4.20
2019-06-07T10:59:36.827Z,3.33
2019-06-07T11:02:23.674Z,3.47
2019-06-07T11:05:05.782Z,2.87
2019-06-07T11:07:40.767Z,3.22
2019-06-07T11:10:18.798Z,3.70
2019-06-07T11:12:47.967Z,3.50
2019-06-07T11:15:20.416Z,4.40
2019-06-07T11:17:56.235Z,2.87
2019-06-07T11:20:29.985Z,2.90
2019-06-07T11:23:06.662Z,2.90
2019-06-07T11:25:40.597Z,2.65
2019-06-07T11:28:14.801Z,3.40
2019-06-07T11:30:50.391Z,2.33
2019-06-07T11:33:23.373Z,2.40
2019-06-07T11:35:58.192Z,3.12
2019-06-07T11:38:30.101Z,2.20
2019-06-07T11:41:02.543Z,1.90
2019-06-07T11:43:36.993Z,2.15
2019-06-07T11:46:10.892Z,2.40
2019-06-07T11:48:44.713Z,2.60
2019-06-07T11:51:21.539Z,2.20
2019-06-07T11:54:14.226Z,2.30
2019-06-07T11:56:53.168Z,1.90
2019-06-07T11:59:25.763Z,2.17
2019-06-07T12:01:58.001Z,1.77
2019-06-07T12:04:34.854Z,1.85
2019-06-07T12:07:05.510Z,2.20
2019-06-07T12:09:52.979Z,1.85
2019-06-07T12:12:14.582Z,2.08
2019-06-07T12:14:47.447Z,2.10
2019-06-07T12:17:20.746Z,2.47
2019-06-07T12:19:59.013Z,2.52
2019-06-07T12:22:36.315Z,2.35
2019-06-07T12:25:08.355Z,3.37
2019-06-07T12:27:42.404Z,2.58
2019-06-07T12:30:22.496Z,3.58
2019-06-07T12:32:48.044Z,3.20
2019-06-07T12:35:34.739Z,3.58
2019-06-07T12:38:17.368Z,3.27
2019-06-07T12:40:57.620Z,3.22
2019-06-07T12:43:29.031Z,3.92
2019-06-07T12:46:01.217Z,3.17
2019-06-07T12:48:34.938Z,4.27
2019-06-07T12:51:07.542Z,3.00
2019-06-07T12:53:42.688Z,3.17
2019-06-07T12:56:15.687Z,3.10
2019-06-07T12:58:48.340Z,2.95
2019-06-07T13:01:22.849Z,2.52
2019-06-07T13:03:56.855Z,3.27
2019-06-07T13:06:28.988Z,2.90
2019-06-07T13:09:01.584Z,3.22
2019-06-07T13:11:35.206Z,2.93
2019-06-07T13:14:07.561Z,3.52
2019-06-07T13:16:39.872Z,2.50
2019-06-07T13:19:16.296Z,2.37
2019-06-07T13:21:50.235Z,1.92
2019-06-07T13:24:22.854Z,2.72
2019-06-07T13:26:57.133Z,2.30
2019-06-07T13:29:31.720Z,2.35
2019-06-07T13:32:03.029Z,2.03
2019-06-07T13:34:34.989Z,2.00
2019-06-07T13:37:07.307Z,2.45
2019-06-07T13:39:40.347Z,1.95
2019-06-07T13:42:16.409Z,2.03
2019-06-07T13:44:50.611Z,1.70
2019-06-07T13:47:28.298Z,3.10
2019-06-07T13:50:00.566Z,2.37
2019-06-07T13:52:34.454Z,2.92
2019-06-07T13:55:07.926Z,2.20
2019-06-07T13:57:40.022Z,2.17
2019-06-07T14:00:15.586Z,2.00
2019-06-07T14:02:45.907Z,1.90
2019-06-07T14:05:18.760Z,1.80
2019-06-07T14:07:52.594Z,3.08
2019-06-07T14:10:27.541Z,2.98
2019-06-07T14:12:59.672Z,2.23
2019-06-07T14:15:34.406Z,2.33
2019-06-07T14:18:05.614Z,2.52
2019-06-07T14:20:38.683Z,2.70
2019-06-07T14:23:10.895Z,2.40
2019-06-07T14:25:47.438Z,2.12
2019-06-07T14:28:24.620Z,2.35
2019-06-07T14:30:55.709Z,2.55
2019-06-07T14:33:28.774Z,2.80
2019-06-07T14:36:01.165Z,2.33
2019-06-07T14:38:37.212Z,2.33
2019-06-07T14:41:06.891Z,3.20
2019-06-07T14:51:20.226Z,10.82
2019-06-07T14:53:54.002Z,3.70
2019-06-07T14:56:27.086Z,4.83
2019-06-07T14:59:00.347Z,5.50
2019-06-07T15:01:33.496Z,15.00
2019-06-07T15:04:05.891Z,13.03
2019-06-07T15:06:42.658Z,4.62
2019-06-07T15:09:14.941Z,5.10
2019-06-07T15:11:53.416Z,5.40
2019-06-07T15:14:29.191Z,5.87
2019-06-07T15:17:05.207Z,5.25
2019-06-07T15:19:39.462Z,5.42
2019-06-07T15:22:12.575Z,5.65
2019-06-07T15:24:53.856Z,6.60
2019-06-07T15:27:27.730Z,5.80
2019-06-07T15:30:09.450Z,5.00
2019-06-07T15:32:38.737Z,5.50
2019-06-07T15:35:11.021Z,4.95
2019-06-07T15:37:46.925Z,4.30
2019-06-07T15:40:20.016Z,4.40
2019-06-07T15:42:54.834Z,3.60
2019-06-07T15:45:26.956Z,3.25
2019-06-07T15:48:01.858Z,3.02
2019-06-07T15:50:34.278Z,2.87
2019-06-07T15:53:07.468Z,2.65
2019-06-07T15:58:49.974Z,3.08
2019-06-07T16:01:23.122Z,3.30
2019-06-07T16:03:55.153Z,3.72
2019-06-07T16:06:27.388Z,3.50
2019-06-07T16:08:59.483Z,3.60
2019-06-07T16:11:32.725Z,2.80
2019-06-07T16:17:19.719Z,5.10
2019-06-07T16:19:53.806Z,5.13
2019-06-07T16:22:29.791Z,3.77
2019-06-07T16:25:01.837Z,4.23
2019-06-07T16:27:34.391Z,3.77
2019-06-07T16:30:10.061Z,3.62
2019-06-07T16:32:43.938Z,4.35
2019-06-07T16:35:16.025Z,4.63
2019-06-07T16:37:50.295Z,4.75
2019-06-07T16:40:22.008Z,3.90
2019-06-07T16:42:53.985Z,4.12
2019-06-07T16:45:26.016Z,4.28
2019-06-07T16:47:57.946Z,4.67
2019-06-07T16:50:29.859Z,4.97
2019-06-07T16:53:01.801Z,5.65
2019-06-07T16:55:33.640Z,5.17
2019-06-07T16:58:05.664Z,4.25
2019-06-07T17:00:38.704Z,5.05
2019-06-07T17:03:11.170Z,4.25
2019-06-07T17:05:46.625Z,4.50
2019-06-07T17:08:16.699Z,3.70
2019-06-07T17:10:49.088Z,3.25
2019-06-07T17:13:32.855Z,3.70
2019-06-07T17:15:56.763Z,3.33
2019-06-07T17:18:28.982Z,3.40
2019-06-07T17:21:01.135Z,4.00
2019-06-07T17:23:33.058Z,3.83
2019-06-07T17:26:04.963Z,3.70
2019-06-07T17:28:36.795Z,4.50
2019-06-07T17:31:08.711Z,3.30
2019-06-07T17:33:41.865Z,3.65
2019-06-07T17:36:14.169Z,2.80
2019-06-07T17:38:46.568Z,2.90
2019-06-07T17:41:18.606Z,2.90
2019-06-07T17:43:58.477Z,3.93
2019-06-07T17:46:24.528Z,3.55
2019-06-07T17:48:56.426Z,3.60
2019-06-07T17:51:28.339Z,3.67
2019-06-07T17:54:00.265Z,3.90
2019-06-07T17:56:32.174Z,3.55
2019-06-07T17:59:05.139Z,3.52
2019-06-07T18:01:41.624Z,3.50
2019-06-07T18:04:10.552Z,3.62
2019-06-07T18:06:47.592Z,3.20
2019-06-07T18:09:20.331Z,3.42
2019-06-07T18:11:52.374Z,3.20
2019-06-07T18:14:24.472Z,2.85
2019-06-07T18:16:56.699Z,3.00
2019-06-07T18:19:30.302Z,2.55
2019-06-07T18:22:02.325Z,2.72
2019-06-07T18:24:34.175Z,2.90
2019-06-07T18:27:07.207Z,2.40
2019-06-07T18:29:39.537Z,2.80
2019-06-07T18:32:13.590Z,2.60
2019-06-07T18:34:46.757Z,3.65
2019-06-07T18:37:18.827Z,2.90
2019-06-07T18:39:53.144Z,3.30
2019-06-07T18:42:25.268Z,3.20
2019-06-07T18:45:00.474Z,2.87
2019-06-07T18:47:32.299Z,3.52
2019-06-07T18:50:07.828Z,3.00
2019-06-07T18:52:41.413Z,3.92
2019-06-07T18:55:13.725Z,3.08
2019-06-07T18:57:48.131Z,3.15
2019-06-07T19:00:23.201Z,3.02
2019-06-07T19:02:56.122Z,2.92
2019-06-07T19:05:29.220Z,3.40
2019-06-07T19:08:02.141Z,3.45
2019-06-07T19:10:34.089Z,3.17
2019-06-07T19:13:05.951Z,3.08
2019-06-07T19:15:37.998Z,3.12
2019-06-07T19:18:09.807Z,3.25
2019-06-07T19:20:41.684Z,3.10
2019-06-07T19:23:13.741Z,3.02
2019-06-07T19:25:45.696Z,3.83
2019-06-07T19:28:17.556Z,3.70
2019-06-07T19:30:50.732Z,3.57
2019-06-07T19:33:23.651Z,3.80
2019-06-07T19:35:57.457Z,3.58
2019-06-07T19:38:29.591Z,3.57
2019-06-07T19:41:16.520Z,4.05
2019-06-07T19:43:34.986Z,4.12
2019-06-07T19:46:07.842Z,3.77
2019-06-07T19:48:40.723Z,3.90
2019-06-07T19:51:12.626Z,4.70
2019-06-07T19:53:44.518Z,5.05
2019-06-07T19:56:16.410Z,4.83
2019-06-07T19:58:48.344Z,5.30
2019-06-07T20:01:20.199Z,4.37
2019-06-07T20:03:52.055Z,3.90
2019-06-07T20:06:23.907Z,4.10
2019-06-07T20:08:56.527Z,4.83
2019-06-07T20:11:30.659Z,4.55
2019-06-07T20:14:03.020Z,4.90
2019-06-07T20:16:35.026Z,4.03
2019-06-07T20:19:06.905Z,4.00
2019-06-07T20:21:38.780Z,4.78
2019-06-07T20:24:24.851Z,4.55
2019-06-07T20:26:44.070Z,4.37
2019-06-07T20:29:25.819Z,4.80
2019-06-07T20:31:49.564Z,4.37
2019-06-07T20:34:21.501Z,3.90
2019-06-07T20:36:53.380Z,3.85
2019-06-07T20:39:26.435Z,3.70
2019-06-07T20:41:59.551Z,6.47
2019-06-07T20:44:31.522Z,4.15
2019-06-07T20:47:04.183Z,4.30
2019-06-07T20:49:37.291Z,3.65
2019-06-07T20:52:09.195Z,3.25
2019-06-07T20:54:41.070Z,3.95
2019-06-07T20:57:12.956Z,3.83
2019-06-07T20:59:44.883Z,3.90
2019-06-07T21:02:16.782Z,4.05
2019-06-07T21:04:50.215Z,4.10
2019-06-07T21:07:22.013Z,4.42
2019-06-07T21:09:53.906Z,3.73
2019-06-07T21:12:25.826Z,3.73
2019-06-07T21:14:57.747Z,3.62
2019-06-07T21:17:29.648Z,3.35
2019-06-07T21:20:02.948Z,3.12
2019-06-07T21:22:34.999Z,3.40
2019-06-07T21:25:09.217Z,2.50
2019-06-07T21:27:41.313Z,3.12
2019-06-07T21:30:13.579Z,2.60
2019-06-07T21:32:45.482Z,2.60
2019-06-07T21:35:17.566Z,2.40
2019-06-07T21:37:49.399Z,2.50
2019-06-07T21:40:21.726Z,2.30
2019-06-07T21:42:55.171Z,2.77
2019-06-07T21:45:27.211Z,2.92
2019-06-07T21:47:59.039Z,2.50
2019-06-07T21:50:31.090Z,2.30
2019-06-07T21:53:02.838Z,2.22
2019-06-07T21:55:37.099Z,3.00
2019-06-07T21:58:09.139Z,2.70
2019-06-07T22:01:04.043Z,3.30
2019-06-07T22:03:36.998Z,2.83
2019-06-07T22:06:11.751Z,3.20
2019-06-07T22:08:43.945Z,3.02
2019-06-07T22:11:15.948Z,2.83
2019-06-07T22:13:47.793Z,2.80
2019-06-07T22:16:28.610Z,2.60
2019-06-07T22:18:53.187Z,2.37
2019-06-07T22:21:25.235Z,2.42
2019-06-07T22:23:57.068Z,2.30
2019-06-07T22:26:29.090Z,2.27
2019-06-07T22:29:00.937Z,2.58
2019-06-07T22:31:32.776Z,2.50
2019-06-07T22:34:04.639Z,2.50
2019-06-07T22:36:36.554Z,2.40
2019-06-07T22:39:09.637Z,2.45
2019-06-07T22:41:42.709Z,2.90
2019-06-07T22:44:14.927Z,2.60
2019-06-07T22:46:46.864Z,2.25
2019-06-07T22:49:19.602Z,2.50
2019-06-07T22:51:51.791Z,2.52
2019-06-07T22:54:23.759Z,2.62
2019-06-07T22:56:57.156Z,2.12
2019-06-07T22:59:29.201Z,2.45
2019-06-07T23:02:01.012Z,2.50
2019-06-07T23:04:32.905Z,2.60
2019-06-07T23:07:04.754Z,2.15
2019-06-07T23:09:36.691Z,2.67
2019-06-07T23:12:09.130Z,2.60
2019-06-07T23:14:41.155Z,2.40
2019-06-07T23:17:13.878Z,3.00
2019-06-07T23:19:45.950Z,2.12
2019-06-07T23:22:17.974Z,2.60
2019-06-07T23:24:49.851Z,2.77
2019-06-07T23:27:21.775Z,2.98
2019-06-07T23:29:53.685Z,2.43
2019-06-07T23:32:26.557Z,2.37
2019-06-07T23:34:58.375Z,2.40
2019-06-07T23:37:30.322Z,2.33
2019-06-07T23:40:03.007Z,2.35
2019-06-07T23:42:34.907Z,2.40
2019-06-07T23:45:06.788Z,2.42
2019-06-07T23:47:38.763Z,1.80
2019-06-07T23:50:11.458Z,1.62
2019-06-07T23:52:43.551Z,2.15
2019-06-07T23:55:17.829Z,2.55
2019-06-07T23:57:49.869Z,2.10
